DLH4EW EDDH-EDDF
Flight info
| Callsign | DLH4EW |
|---|---|
| Flight time | N/A |
| Altitude | 30000 |
| Route | AMLUH2G/33 AMLUH M852 DENIX DCT RIMET/N0430F310 T157 KOKEB/N0379F230 T157 KERAX KERAX5A |
| Aircraft | A321/M-SDE3FGHIRWY/LB1 |
Departure
| Time | 2026-05-05 14:14 |
|---|---|
| Airport | Hamburg Helmut Schmidt Airport (EDDH) |
Arrival
| Time | N/A |
|---|---|
| Airport | Frankfurt Main Airport (EDDF) |
| Time | Latitude | Longitude | Altitude | Speed | Heading |
|---|---|---|---|---|---|
| 2026-05-05 13:40 | 53.63206 | 10.00368 | 49 ft | 0 kts | 86° |
| 2026-05-05 14:05 | 53.63205 | 10.00342 | 48 ft | 4 kts | 86° |
| 2026-05-05 14:05 | 53.63203 | 10.00297 | 48 ft | 4 kts | 86° |
| 2026-05-05 14:05 | 53.63202 | 10.00268 | 48 ft | 2 kts | 86° |
| 2026-05-05 14:05 | 53.63202 | 10.00231 | 48 ft | 4 kts | 101° |
| 2026-05-05 14:06 | 53.63218 | 10.00183 | 46 ft | 4 kts | 158° |
| 2026-05-05 14:06 | 53.63227 | 10.00178 | 44 ft | 0 kts | 176° |
| 2026-05-05 14:08 | 53.63220 | 10.00179 | 48 ft | 2 kts | 176° |
| 2026-05-05 14:08 | 53.63201 | 10.00181 | 48 ft | 3 kts | 176° |
| 2026-05-05 14:09 | 53.63176 | 10.00184 | 48 ft | 5 kts | 176° |
| 2026-05-05 14:09 | 53.63138 | 10.00188 | 48 ft | 6 kts | 176° |
| 2026-05-05 14:09 | 53.63084 | 10.00191 | 48 ft | 9 kts | 187° |
| 2026-05-05 14:09 | 53.63025 | 10.00139 | 46 ft | 11 kts | 212° |
| 2026-05-05 14:10 | 53.62958 | 10.00066 | 47 ft | 12 kts | 214° |
| 2026-05-05 14:10 | 53.62908 | 9.99953 | 48 ft | 11 kts | 242° |
| 2026-05-05 14:10 | 53.62874 | 9.99840 | 43 ft | 13 kts | 243° |
| 2026-05-05 14:10 | 53.62865 | 9.99750 | 45 ft | 6 kts | 307° |
| 2026-05-05 14:11 | 53.62882 | 9.99733 | 45 ft | 0 kts | 333° |
| 2026-05-05 14:13 | 53.63048 | 9.99590 | 46 ft | 66 kts | 333° |
| 2026-05-05 14:13 | 53.63678 | 9.99044 | 48 ft | 136 kts | 333° |
| 2026-05-05 14:13 | 53.64671 | 9.98196 | 277 ft | 170 kts | 336° |
| 2026-05-05 14:14 | 53.65732 | 9.97294 | 1006 ft | 171 kts | 335° |
| 2026-05-05 14:14 | 53.66793 | 9.96371 | 1675 ft | 176 kts | 335° |
| 2026-05-05 14:14 | 53.67935 | 9.95360 | 2059 ft | 193 kts | 335° |
| 2026-05-05 14:14 | 53.69252 | 9.94630 | 2434 ft | 209 kts | 355° |
| 2026-05-05 14:15 | 53.70726 | 9.94662 | 3067 ft | 212 kts | 4° |
| 2026-05-05 14:15 | 53.72193 | 9.94900 | 3807 ft | 214 kts | 18° |
| 2026-05-05 14:15 | 53.73380 | 9.96397 | 4422 ft | 222 kts | 56° |
| 2026-05-05 14:15 | 53.73915 | 9.98939 | 4820 ft | 238 kts | 79° |
| 2026-05-05 14:16 | 53.74149 | 10.01630 | 5627 ft | 234 kts | 86° |
| 2026-05-05 14:16 | 53.73915 | 10.04394 | 6259 ft | 238 kts | 110° |
| 2026-05-05 14:16 | 53.73150 | 10.06936 | 6518 ft | 257 kts | 121° |
| 2026-05-05 14:16 | 53.72207 | 10.09665 | 6824 ft | 278 kts | 121° |
| 2026-05-05 14:17 | 53.71226 | 10.12541 | 7448 ft | 286 kts | 121° |
| 2026-05-05 14:17 | 53.70212 | 10.15540 | 7859 ft | 305 kts | 121° |
| 2026-05-05 14:17 | 53.68952 | 10.18551 | 8092 ft | 324 kts | 136° |
| 2026-05-05 14:17 | 53.67145 | 10.20853 | 8498 ft | 327 kts | 154° |
| 2026-05-05 14:18 | 53.65017 | 10.22150 | 8886 ft | 326 kts | 167° |
| 2026-05-05 14:18 | 53.62814 | 10.23154 | 9279 ft | 328 kts | 167° |
| 2026-05-05 14:18 | 53.60599 | 10.24160 | 9704 ft | 332 kts | 167° |
| 2026-05-05 14:18 | 53.58355 | 10.25182 | 10371 ft | 335 kts | 167° |
| 2026-05-05 14:19 | 53.56104 | 10.26211 | 11058 ft | 337 kts | 167° |
| 2026-05-05 14:19 | 53.53864 | 10.27239 | 11712 ft | 340 kts | 167° |
| 2026-05-05 14:19 | 53.51570 | 10.28288 | 12373 ft | 343 kts | 167° |
| 2026-05-05 14:19 | 53.49252 | 10.29346 | 13005 ft | 347 kts | 167° |
| 2026-05-05 14:20 | 53.46901 | 10.30416 | 13634 ft | 351 kts | 167° |
| 2026-05-05 14:20 | 53.44533 | 10.31494 | 14197 ft | 355 kts | 167° |
| 2026-05-05 14:20 | 53.42137 | 10.32581 | 14775 ft | 358 kts | 167° |
| 2026-05-05 14:20 | 53.39717 | 10.33674 | 15347 ft | 361 kts | 167° |
| 2026-05-05 14:21 | 53.37275 | 10.34777 | 15907 ft | 365 kts | 167° |
| 2026-05-05 14:21 | 53.34848 | 10.35871 | 16470 ft | 368 kts | 168° |
| 2026-05-05 14:21 | 53.32360 | 10.36992 | 17038 ft | 371 kts | 168° |
| 2026-05-05 14:21 | 53.29858 | 10.38116 | 17593 ft | 374 kts | 168° |
| 2026-05-05 14:22 | 53.27338 | 10.39244 | 18132 ft | 377 kts | 167° |
| 2026-05-05 14:22 | 53.24795 | 10.40379 | 18627 ft | 379 kts | 167° |
| 2026-05-05 14:22 | 53.22240 | 10.41518 | 19134 ft | 381 kts | 168° |
| 2026-05-05 14:22 | 53.19670 | 10.42662 | 19634 ft | 383 kts | 168° |
| 2026-05-05 14:23 | 53.17081 | 10.43812 | 20143 ft | 385 kts | 168° |
| 2026-05-05 14:23 | 53.14478 | 10.44922 | 20626 ft | 386 kts | 172° |
| 2026-05-05 14:23 | 53.11825 | 10.45428 | 21091 ft | 384 kts | 182° |
| 2026-05-05 14:23 | 53.09157 | 10.45204 | 21555 ft | 384 kts | 188° |
| 2026-05-05 14:24 | 53.06484 | 10.44827 | 22030 ft | 386 kts | 188° |
| 2026-05-05 14:24 | 53.03798 | 10.44445 | 22509 ft | 388 kts | 188° |
| 2026-05-05 14:24 | 53.01103 | 10.44067 | 22973 ft | 390 kts | 188° |
| 2026-05-05 14:24 | 52.98392 | 10.43691 | 23432 ft | 392 kts | 188° |
| 2026-05-05 14:25 | 52.95670 | 10.43320 | 23822 ft | 393 kts | 188° |
| 2026-05-05 14:25 | 52.92936 | 10.42948 | 24218 ft | 395 kts | 188° |
| 2026-05-05 14:25 | 52.90188 | 10.42578 | 24619 ft | 396 kts | 188° |
| 2026-05-05 14:25 | 52.87470 | 10.42212 | 25010 ft | 397 kts | 188° |
| 2026-05-05 14:26 | 52.84710 | 10.41837 | 25406 ft | 399 kts | 188° |
| 2026-05-05 14:26 | 52.81935 | 10.41458 | 25806 ft | 400 kts | 189° |
| 2026-05-05 14:26 | 52.79149 | 10.41079 | 26181 ft | 401 kts | 188° |
| 2026-05-05 14:26 | 52.76360 | 10.40700 | 26577 ft | 403 kts | 188° |
| 2026-05-05 14:27 | 52.73562 | 10.40321 | 26961 ft | 404 kts | 188° |
| 2026-05-05 14:27 | 52.70751 | 10.39939 | 27339 ft | 406 kts | 188° |
| 2026-05-05 14:27 | 52.67933 | 10.39558 | 27705 ft | 407 kts | 188° |
| 2026-05-05 14:27 | 52.65101 | 10.39181 | 28073 ft | 409 kts | 188° |
| 2026-05-05 14:28 | 52.62297 | 10.38812 | 28433 ft | 410 kts | 188° |
| 2026-05-05 14:28 | 52.59445 | 10.38434 | 28796 ft | 412 kts | 189° |
| 2026-05-05 14:28 | 52.56585 | 10.38047 | 29148 ft | 413 kts | 189° |
| 2026-05-05 14:28 | 52.53708 | 10.37654 | 29480 ft | 415 kts | 188° |
| 2026-05-05 14:29 | 52.50825 | 10.37262 | 29835 ft | 416 kts | 188° |
| 2026-05-05 14:29 | 52.47933 | 10.36874 | 30144 ft | 418 kts | 188° |
| 2026-05-05 14:29 | 52.45028 | 10.36486 | 30427 ft | 419 kts | 189° |
| 2026-05-05 14:29 | 52.42121 | 10.36095 | 30696 ft | 421 kts | 189° |
| 2026-05-05 14:30 | 52.39196 | 10.35706 | 30859 ft | 421 kts | 189° |
| 2026-05-05 14:30 | 52.36325 | 10.35331 | 30891 ft | 405 kts | 189° |
| 2026-05-05 14:30 | 52.30828 | 10.34618 | 30869 ft | 392 kts | 189° |
| 2026-05-05 14:31 | 52.25436 | 10.33896 | 30891 ft | 390 kts | 189° |
| 2026-05-05 14:31 | 52.20013 | 10.33167 | 30889 ft | 390 kts | 189° |
| 2026-05-05 14:32 | 52.14604 | 10.32445 | 30887 ft | 390 kts | 189° |
| 2026-05-05 14:32 | 52.09187 | 10.31733 | 30884 ft | 390 kts | 189° |
| 2026-05-05 14:33 | 52.03776 | 10.31028 | 30869 ft | 390 kts | 189° |
| 2026-05-05 14:33 | 51.98394 | 10.30331 | 30875 ft | 391 kts | 189° |
| 2026-05-05 14:34 | 51.92965 | 10.29618 | 30868 ft | 391 kts | 189° |
| 2026-05-05 14:34 | 51.87555 | 10.28905 | 30869 ft | 390 kts | 189° |
| 2026-05-05 14:35 | 51.82131 | 10.28196 | 30861 ft | 390 kts | 188° |
| 2026-05-05 14:35 | 51.76725 | 10.27503 | 30874 ft | 389 kts | 188° |
| 2026-05-05 14:36 | 51.71362 | 10.26812 | 30869 ft | 389 kts | 188° |
| 2026-05-05 14:36 | 51.65967 | 10.26106 | 30874 ft | 388 kts | 188° |
| 2026-05-05 14:37 | 51.60580 | 10.25405 | 30865 ft | 388 kts | 188° |
| 2026-05-05 14:37 | 51.55195 | 10.24722 | 30864 ft | 388 kts | 188° |
| 2026-05-05 14:38 | 51.49820 | 10.24034 | 30861 ft | 387 kts | 188° |
| 2026-05-05 14:38 | 51.44450 | 10.23353 | 30860 ft | 386 kts | 188° |
| 2026-05-05 14:39 | 51.39100 | 10.22665 | 30727 ft | 382 kts | 188° |
| 2026-05-05 14:39 | 51.36470 | 10.22331 | 30403 ft | 374 kts | 188° |
| 2026-05-05 14:39 | 51.33889 | 10.22008 | 29968 ft | 370 kts | 187° |
| 2026-05-05 14:40 | 51.31329 | 10.21772 | 29481 ft | 366 kts | 185° |
| 2026-05-05 14:40 | 51.28833 | 10.21677 | 29065 ft | 361 kts | 184° |
| 2026-05-05 14:40 | 51.26337 | 10.21661 | 28643 ft | 356 kts | 183° |
| 2026-05-05 14:40 | 51.23873 | 10.21669 | 28247 ft | 352 kts | 183° |
| 2026-05-05 14:41 | 51.21441 | 10.21670 | 27842 ft | 347 kts | 183° |
| 2026-05-05 14:41 | 51.19046 | 10.21661 | 27466 ft | 342 kts | 183° |
| 2026-05-05 14:41 | 51.16679 | 10.21636 | 27085 ft | 337 kts | 183° |
| 2026-05-05 14:41 | 51.14344 | 10.21593 | 26714 ft | 333 kts | 184° |
| 2026-05-05 14:42 | 51.12044 | 10.21540 | 26347 ft | 328 kts | 183° |
| 2026-05-05 14:42 | 51.09778 | 10.21489 | 25992 ft | 325 kts | 183° |
| 2026-05-05 14:42 | 51.07515 | 10.21442 | 25626 ft | 324 kts | 183° |
| 2026-05-05 14:42 | 51.05266 | 10.21396 | 25251 ft | 322 kts | 182° |
| 2026-05-05 14:43 | 51.03023 | 10.21352 | 24879 ft | 321 kts | 182° |
| 2026-05-05 14:43 | 51.00796 | 10.21308 | 24497 ft | 320 kts | 182° |
| 2026-05-05 14:43 | 50.98575 | 10.21264 | 24117 ft | 318 kts | 182° |
| 2026-05-05 14:43 | 50.96362 | 10.21225 | 23734 ft | 317 kts | 182° |
| 2026-05-05 14:44 | 50.94139 | 10.21193 | 23126 ft | 322 kts | 182° |
| 2026-05-05 14:44 | 50.91911 | 10.21160 | 22698 ft | 318 kts | 182° |
| 2026-05-05 14:44 | 50.89709 | 10.21126 | 22301 ft | 314 kts | 182° |
| 2026-05-05 14:44 | 50.87532 | 10.21093 | 21911 ft | 310 kts | 181° |
| 2026-05-05 14:45 | 50.85383 | 10.21051 | 21504 ft | 308 kts | 182° |
| 2026-05-05 14:45 | 50.83260 | 10.20855 | 21100 ft | 304 kts | 191° |
| 2026-05-05 14:45 | 50.81260 | 10.19856 | 20706 ft | 301 kts | 206° |
| 2026-05-05 14:45 | 50.79504 | 10.18070 | 20311 ft | 301 kts | 220° |
| 2026-05-05 14:46 | 50.78109 | 10.15633 | 19945 ft | 299 kts | 234° |
| 2026-05-05 14:46 | 50.77114 | 10.12740 | 19575 ft | 299 kts | 241° |
| 2026-05-05 14:46 | 50.76202 | 10.09844 | 19196 ft | 298 kts | 241° |
| 2026-05-05 14:46 | 50.75275 | 10.06917 | 18817 ft | 297 kts | 241° |
| 2026-05-05 14:47 | 50.74350 | 10.04015 | 18440 ft | 295 kts | 241° |
| 2026-05-05 14:47 | 50.73418 | 10.01118 | 18067 ft | 295 kts | 241° |
| 2026-05-05 14:47 | 50.72491 | 9.98235 | 17650 ft | 293 kts | 241° |
| 2026-05-05 14:47 | 50.71576 | 9.95380 | 17249 ft | 291 kts | 241° |
| 2026-05-05 14:48 | 50.70659 | 9.92520 | 16761 ft | 292 kts | 241° |
| 2026-05-05 14:48 | 50.69744 | 9.89671 | 16411 ft | 291 kts | 241° |
| 2026-05-05 14:48 | 50.68795 | 9.86726 | 16142 ft | 306 kts | 241° |
| 2026-05-05 14:48 | 50.67781 | 9.83587 | 15898 ft | 337 kts | 241° |
| 2026-05-05 14:49 | 50.66685 | 9.80206 | 15643 ft | 351 kts | 241° |
| 2026-05-05 14:49 | 50.65570 | 9.76754 | 15398 ft | 355 kts | 241° |
| 2026-05-05 14:49 | 50.64437 | 9.73237 | 15017 ft | 363 kts | 241° |
| 2026-05-05 14:49 | 50.63108 | 9.69875 | 14511 ft | 360 kts | 229° |
| 2026-05-05 14:50 | 50.61316 | 9.67173 | 13990 ft | 356 kts | 215° |
| 2026-05-05 14:50 | 50.59190 | 9.65314 | 13468 ft | 353 kts | 201° |
| 2026-05-05 14:50 | 50.56899 | 9.63930 | 12930 ft | 352 kts | 200° |
| 2026-05-05 14:50 | 50.54618 | 9.62547 | 12417 ft | 350 kts | 201° |
| 2026-05-05 14:51 | 50.52357 | 9.61171 | 11908 ft | 347 kts | 201° |
| 2026-05-05 14:51 | 50.50116 | 9.59805 | 11402 ft | 345 kts | 201° |
| 2026-05-05 14:51 | 50.47890 | 9.58446 | 10909 ft | 342 kts | 200° |
| 2026-05-05 14:51 | 50.45729 | 9.56901 | 10404 ft | 340 kts | 212° |
| 2026-05-05 14:52 | 50.43948 | 9.54492 | 9900 ft | 338 kts | 223° |
| 2026-05-05 14:52 | 50.42289 | 9.51887 | 9363 ft | 336 kts | 224° |
| 2026-05-05 14:52 | 50.40648 | 9.49295 | 8814 ft | 334 kts | 224° |
| 2026-05-05 14:52 | 50.39017 | 9.46729 | 8272 ft | 331 kts | 224° |
| 2026-05-05 14:53 | 50.37394 | 9.44185 | 7742 ft | 329 kts | 224° |
| 2026-05-05 14:53 | 50.35776 | 9.41668 | 7256 ft | 326 kts | 224° |
| 2026-05-05 14:53 | 50.34698 | 9.39998 | 7078 ft | 318 kts | 224° |
| 2026-05-05 14:53 | 50.33162 | 9.37601 | 6835 ft | 306 kts | 226° |
| 2026-05-05 14:54 | 50.31881 | 9.35076 | 6590 ft | 295 kts | 233° |
| 2026-05-05 14:54 | 50.30710 | 9.32506 | 6351 ft | 286 kts | 234° |
| 2026-05-05 14:54 | 50.29581 | 9.30003 | 6102 ft | 278 kts | 234° |
| 2026-05-05 14:54 | 50.28482 | 9.27568 | 5851 ft | 270 kts | 234° |
| 2026-05-05 14:55 | 50.27407 | 9.25182 | 5598 ft | 265 kts | 234° |
| 2026-05-05 14:55 | 50.26346 | 9.22836 | 5337 ft | 264 kts | 234° |
| 2026-05-05 14:55 | 50.25288 | 9.20490 | 5088 ft | 264 kts | 234° |
| 2026-05-05 14:55 | 50.24230 | 9.18146 | 4843 ft | 263 kts | 233° |
| 2026-05-05 14:56 | 50.23187 | 9.15821 | 4594 ft | 261 kts | 234° |
| 2026-05-05 14:56 | 50.22143 | 9.13502 | 4335 ft | 261 kts | 233° |
| 2026-05-05 14:56 | 50.21110 | 9.11191 | 4087 ft | 257 kts | 234° |
| 2026-05-05 14:56 | 50.20080 | 9.08901 | 3991 ft | 258 kts | 234° |
| 2026-05-05 14:57 | 50.19043 | 9.06608 | 3992 ft | 259 kts | 234° |
| 2026-05-05 14:57 | 50.18000 | 9.04305 | 3994 ft | 260 kts | 234° |
| 2026-05-05 14:57 | 50.16955 | 9.01995 | 3990 ft | 259 kts | 233° |
| 2026-05-05 14:57 | 50.15928 | 8.99718 | 3998 ft | 260 kts | 234° |
| 2026-05-05 14:58 | 50.14875 | 8.97391 | 4001 ft | 258 kts | 233° |
| 2026-05-05 14:58 | 50.13856 | 8.95132 | 4004 ft | 259 kts | 234° |
| 2026-05-05 14:58 | 50.12824 | 8.92844 | 4000 ft | 251 kts | 233° |
| 2026-05-05 14:58 | 50.11856 | 8.90689 | 4001 ft | 234 kts | 235° |
| 2026-05-05 14:59 | 50.11112 | 8.88559 | 4014 ft | 215 kts | 245° |
| 2026-05-05 14:59 | 50.10577 | 8.86437 | 3980 ft | 207 kts | 248° |
| 2026-05-05 14:59 | 50.10085 | 8.84352 | 3788 ft | 205 kts | 249° |
| 2026-05-05 14:59 | 50.09594 | 8.82259 | 3545 ft | 204 kts | 248° |
| 2026-05-05 15:00 | 50.09105 | 8.80186 | 3276 ft | 205 kts | 248° |
| 2026-05-05 15:00 | 50.08783 | 8.78819 | 3092 ft | 202 kts | 248° |
| 2026-05-05 15:00 | 50.08129 | 8.76060 | 2751 ft | 207 kts | 249° |
| 2026-05-05 15:00 | 50.07639 | 8.73979 | 2455 ft | 201 kts | 250° |
| 2026-05-05 15:01 | 50.07165 | 8.71971 | 2193 ft | 195 kts | 250° |
| 2026-05-05 15:01 | 50.06808 | 8.70002 | 1852 ft | 181 kts | 256° |